»·PEaware :: N24320 M75-KHLN

N24320 :: M75-KHLN

FLIGHT INFORMATION

Flight Status: Arrived
Operator: Privately registered:
United States
More flights under this callsign
Pilot: Aaron T. (8357)
Aircraft: MCDONNELL-DOUGLAS SKYTRAIN C-47
(DC3)
More flights by this aircraft type
Origin: M75 Malta
United States
Destination: KHLN Helena Regl
United States
More flights between these airports :: More routes between these airports
Route: CAGAT V430 HVR V257 GTF V21 HLN
File this flight plan on PilotEdge
Remarks:
Altitude:
(Current/Filed)
10,000ft
Speed:
(Current/Filed)
130kts
Departed: 20-Nov-20 06:14 PM
Arrived: 20-Nov-20 07:49 PM
Distance/Time
Traveled:
196nm/1:35
Distance/Time
To Go:
Arrived

Flight Plot

Page will automatically refresh every two minutes.

Flight plan parsing failed; only flown route is shown


Map Options




Map Legend


Flown Route
Filed Route
Departure Airport
Arrival Airport
Navaid (VOR, NDB)
Fix

Horizontal Profiles

Position Reports

Time Latitude Longitude Heading Altitude Ground
Speed
20-Nov-20 18:07 48.368005 -107.912712 268 2262ft 0kts
20-Nov-20 18:08 48.368005 -107.912715 268 2263ft 0kts
20-Nov-20 18:09 48.367665 -107.912868 92 2263ft 0kts
20-Nov-20 18:10 48.367470 -107.910179 165 2263ft 0kts
20-Nov-20 18:11 48.367467 -107.910178 165 2263ft 0kts
20-Nov-20 18:12 48.367465 -107.910177 165 2263ft 0kts
20-Nov-20 18:13 48.366914 -107.918617 268 2281ft 91kts
20-Nov-20 18:14 48.367345 -107.964157 270 3529ft 120kts
20-Nov-20 18:15 48.365618 -108.015534 265 4934ft 125kts
20-Nov-20 18:16 48.366471 -108.061034 305 6360ft 113kts
20-Nov-20 18:17 48.382436 -108.096215 285 7610ft 104kts
20-Nov-20 18:18 48.390692 -108.139556 286 8819ft 109kts
20-Nov-20 18:19 48.399278 -108.183235 285 10002ft 107kts
20-Nov-20 18:20 48.407590 -108.230226 282 10503ft 135kts
20-Nov-20 18:21 48.414962 -108.289610 279 10489ft 148kts
20-Nov-20 18:22 48.419928 -108.351799 276 10483ft 150kts
20-Nov-20 18:23 48.424257 -108.413049 277 10480ft 142kts
20-Nov-20 18:24 48.429403 -108.472777 279 10206ft 150kts
20-Nov-20 18:25 48.425189 -108.533664 248 9984ft 149kts
20-Nov-20 18:26 48.424996 -108.592651 278 9971ft 141kts
20-Nov-20 18:27 48.432758 -108.650479 283 9969ft 141kts
20-Nov-20 18:28 48.442106 -108.707792 282 9959ft 141kts
20-Nov-20 18:29 48.449493 -108.765974 278 9960ft 141kts
20-Nov-20 18:30 48.453868 -108.824901 275 9960ft 140kts
20-Nov-20 18:31 48.457394 -108.883707 275 9966ft 140kts
20-Nov-20 18:32 48.462085 -108.942788 277 9955ft 141kts
20-Nov-20 18:33 48.468300 -109.001153 279 9956ft 141kts
20-Nov-20 18:34 48.474611 -109.059862 278 9960ft 141kts
20-Nov-20 18:35 48.480166 -109.118665 277 9958ft 141kts
20-Nov-20 18:36 48.485205 -109.177588 277 9949ft 143kts
20-Nov-20 18:37 48.490572 -109.236881 277 9955ft 142kts
20-Nov-20 18:38 48.496255 -109.296104 278 9954ft 143kts
20-Nov-20 18:39 48.501876 -109.355130 277 9976ft 141kts
20-Nov-20 18:40 48.507312 -109.414245 277 9955ft 142kts
20-Nov-20 18:41 48.512741 -109.472177 276 9960ft 137kts
20-Nov-20 18:42 48.517967 -109.529192 277 9967ft 136kts
20-Nov-20 18:43 48.523362 -109.586079 277 9974ft 137kts
20-Nov-20 18:44 48.528686 -109.643419 277 9963ft 138kts
20-Nov-20 18:45 48.534018 -109.700831 276 9977ft 137kts
20-Nov-20 18:46 48.534301 -109.757385 232 9972ft 145kts
20-Nov-20 18:47 48.520169 -109.808310 241 9953ft 143kts
20-Nov-20 18:48 48.492334 -109.844971 241 9988ft 140kts
20-Nov-20 18:49 48.464012 -109.887733 235 9974ft 144kts
20-Nov-20 18:51 48.436391 -109.932207 232 9972ft 145kts
20-Nov-20 18:52 48.408314 -109.975744 232 9973ft 145kts
20-Nov-20 18:53 48.380317 -110.019388 233 9974ft 145kts
20-Nov-20 18:54 48.352248 -110.062930 232 9970ft 145kts
20-Nov-20 18:55 48.324160 -110.106306 232 9973ft 145kts
20-Nov-20 18:56 48.296015 -110.149771 232 9972ft 145kts
20-Nov-20 18:57 48.267963 -110.193293 232 9973ft 145kts
20-Nov-20 18:58 48.239858 -110.236596 232 9977ft 145kts
20-Nov-20 18:59 48.211618 -110.280136 232 9982ft 145kts
20-Nov-20 19:00 48.183405 -110.323671 232 9977ft 145kts
20-Nov-20 19:01 48.155358 -110.366788 232 9979ft 144kts
20-Nov-20 19:02 48.127071 -110.410278 232 9988ft 148kts
20-Nov-20 19:03 48.098076 -110.454976 232 9987ft 149kts
20-Nov-20 19:04 48.068874 -110.499701 232 9985ft 150kts
20-Nov-20 19:05 48.039570 -110.544142 232 9988ft 149kts
20-Nov-20 19:06 48.010412 -110.588658 232 9992ft 150kts
20-Nov-20 19:06 47.986219 -110.626096 232 9990ft 150kts
20-Nov-20 19:08 47.952384 -110.678683 232 9997ft 150kts
20-Nov-20 19:08 47.927819 -110.716044 231 9999ft 151kts
20-Nov-20 19:10 47.893115 -110.768106 231 9986ft 152kts
20-Nov-20 19:11 47.863267 -110.812991 233 9987ft 151kts
20-Nov-20 19:11 47.836264 -110.847257 222 9993ft 155kts
20-Nov-20 19:12 47.801240 -110.884879 226 9989ft 154kts
20-Nov-20 19:13 47.771390 -110.927530 234 9993ft 151kts
20-Nov-20 19:14 47.744159 -110.974999 236 9986ft 151kts
20-Nov-20 19:15 47.715587 -111.020906 231 9984ft 153kts
20-Nov-20 19:16 47.684985 -111.064363 230 10016ft 152kts
20-Nov-20 19:17 47.654436 -111.108298 231 9997ft 152kts
20-Nov-20 19:18 47.624764 -111.153180 232 10002ft 153kts
20-Nov-20 19:19 47.594810 -111.198061 231 9991ft 153kts
20-Nov-20 19:20 47.564588 -111.242339 232 9995ft 152kts
20-Nov-20 19:21 47.534823 -111.286763 232 9991ft 152kts
20-Nov-20 19:22 47.505963 -111.329425 232 9987ft 151kts
20-Nov-20 19:23 47.476071 -111.373754 231 9974ft 152kts
20-Nov-20 19:24 47.449020 -111.420427 225 9952ft 155kts
20-Nov-20 19:25 47.404795 -111.420042 212 9743ft 168kts
20-Nov-20 19:26 47.375014 -111.460349 203 10036ft 158kts
20-Nov-20 19:27 47.335162 -111.486923 214 9995ft 160kts
20-Nov-20 19:28 47.294597 -111.514217 212 10001ft 160kts
20-Nov-20 19:29 47.253791 -111.540672 211 9999ft 160kts
20-Nov-20 19:30 47.213153 -111.567097 212 10003ft 160kts
20-Nov-20 19:31 47.172386 -111.593931 211 9996ft 160kts
20-Nov-20 19:32 47.131436 -111.620379 210 10005ft 161kts
20-Nov-20 19:33 47.090430 -111.647017 211 10007ft 161kts
20-Nov-20 19:34 47.049728 -111.673579 211 10025ft 160kts
20-Nov-20 19:35 47.008668 -111.700054 210 10032ft 159kts
20-Nov-20 19:36 46.967638 -111.726540 210 10036ft 161kts
20-Nov-20 19:37 46.926681 -111.752928 210 10055ft 159kts
20-Nov-20 19:38 46.884423 -111.774369 187 10086ft 164kts
20-Nov-20 19:39 46.841414 -111.792629 214 10022ft 161kts
20-Nov-20 19:40 46.803306 -111.827137 214 10000ft 161kts
20-Nov-20 19:41 46.762016 -111.853812 206 9861ft 164kts
20-Nov-20 19:42 46.715850 -111.864155 191 9067ft 170kts
20-Nov-20 19:43 46.670478 -111.871559 191 8249ft 153kts
20-Nov-20 19:44 46.629686 -111.878818 191 7387ft 141kts
20-Nov-20 19:45 46.594080 -111.895738 233 6222ft 139kts
20-Nov-20 19:46 46.599695 -111.942112 287 4797ft 107kts
20-Nov-20 19:47 46.604748 -111.975211 284 3886ft 52kts
20-Nov-20 19:48 46.603906 -111.980581 182 3886ft 8kts
20-Nov-20 19:49 46.602877 -111.982979 173 3886ft 5kts

Navigation Log

Ident Type
Flight plan parsing failed, navigation log unavailable